createdAt,value
2022-09-15T00:01:02.102Z,2.80
2022-09-15T00:03:29.039Z,3.30
2022-09-15T00:05:55.846Z,3.50
2022-09-15T00:08:23.316Z,4.87
2022-09-15T00:10:54.837Z,3.97
2022-09-15T00:13:22.754Z,4.07
2022-09-15T00:15:49.576Z,4.10
2022-09-15T00:18:16.273Z,4.00
2022-09-15T00:20:44.469Z,3.67
2022-09-15T00:23:13.609Z,3.50
2022-09-15T00:25:50.593Z,4.30
2022-09-15T00:28:19.445Z,4.23
2022-09-15T00:30:48.309Z,4.43
2022-09-15T00:33:16.427Z,4.90
2022-09-15T00:35:45.448Z,4.90
2022-09-15T00:38:14.246Z,4.90
2022-09-15T00:40:55.496Z,5.43
2022-09-15T00:43:46.210Z,5.40
2022-09-15T00:46:14.452Z,4.73
2022-09-15T00:48:50.196Z,5.40
2022-09-15T00:51:20.677Z,5.60
2022-09-15T00:53:49.359Z,5.33
2022-09-15T00:56:17.918Z,4.30
2022-09-15T00:59:02.270Z,5.13
2022-09-15T01:01:31.942Z,5.37
2022-09-15T01:03:59.544Z,5.83
2022-09-15T01:06:43.357Z,5.00
2022-09-15T01:09:27.937Z,5.33
2022-09-15T01:11:54.783Z,5.67
2022-09-15T01:14:21.621Z,5.67
2022-09-15T01:17:10.064Z,5.40
2022-09-15T01:20:00.054Z,5.23
2022-09-15T01:22:50.355Z,4.83
2022-09-15T01:25:50.782Z,5.57
2022-09-15T01:28:20.204Z,5.13
2022-09-15T01:30:53.868Z,5.43
2022-09-15T01:33:48.908Z,4.47
2022-09-15T01:36:25.205Z,4.60
2022-09-15T01:39:07.485Z,5.30
2022-09-15T01:41:40.473Z,5.00
2022-09-15T01:44:18.503Z,5.53
2022-09-15T01:46:54.593Z,6.10
2022-09-15T01:49:30.223Z,5.47
2022-09-15T01:51:56.916Z,5.53
2022-09-15T01:54:28.254Z,5.13
2022-09-15T01:56:55.384Z,5.17
2022-09-15T01:59:22.247Z,5.20
2022-09-15T02:01:57.363Z,5.90
2022-09-15T02:04:30.848Z,5.70
2022-09-15T02:07:03.960Z,5.23
2022-09-15T02:09:38.331Z,5.57
2022-09-15T02:12:19.392Z,5.83
2022-09-15T02:15:07.784Z,5.47
2022-09-15T02:17:42.594Z,5.60
2022-09-15T02:20:17.632Z,5.63
2022-09-15T02:22:53.529Z,5.70
2022-09-15T02:25:28.788Z,5.70
2022-09-15T02:27:59.801Z,5.80
2022-09-15T02:30:30.067Z,5.87
2022-09-15T02:33:01.473Z,5.60
2022-09-15T02:35:30.420Z,5.13
2022-09-15T02:37:58.154Z,5.73
2022-09-15T02:40:24.934Z,5.77
2022-09-15T02:42:57.502Z,5.67
2022-09-15T02:45:28.370Z,6.53
2022-09-15T02:47:55.020Z,5.30
2022-09-15T02:50:21.730Z,6.03
2022-09-15T02:52:48.369Z,5.87
2022-09-15T02:55:16.304Z,5.77
2022-09-15T02:57:42.942Z,5.23
2022-09-15T03:00:13.394Z,5.40
2022-09-15T03:02:41.829Z,4.93
2022-09-15T03:05:10.225Z,5.23
2022-09-15T03:07:38.016Z,4.57
2022-09-15T03:10:06.412Z,5.40
2022-09-15T03:12:41.739Z,5.00
2022-09-15T03:15:10.851Z,5.77
2022-09-15T03:17:39.314Z,5.43
2022-09-15T03:20:07.910Z,5.00
2022-09-15T03:22:35.203Z,5.23
2022-09-15T03:25:04.794Z,5.03
2022-09-15T03:27:31.692Z,6.00
2022-09-15T03:29:58.816Z,6.17
2022-09-15T03:32:25.882Z,6.10
2022-09-15T03:34:57.713Z,6.40
2022-09-15T03:37:25.202Z,6.27
2022-09-15T03:39:51.968Z,6.70
2022-09-15T03:42:19.572Z,6.37
2022-09-15T03:44:46.273Z,7.00
2022-09-15T03:47:13.036Z,6.97
2022-09-15T03:49:39.675Z,6.43
2022-09-15T03:52:06.284Z,6.27
2022-09-15T03:54:32.920Z,6.37
2022-09-15T03:56:59.577Z,5.70
2022-09-15T03:59:26.223Z,8.63
2022-09-15T04:01:53.028Z,6.83
2022-09-15T04:04:19.757Z,7.13
2022-09-15T04:06:46.391Z,6.80
2022-09-15T04:09:13.551Z,6.50
2022-09-15T04:11:40.918Z,7.83
2022-09-15T04:14:07.606Z,7.23
2022-09-15T04:16:34.292Z,6.97
2022-09-15T04:19:01.066Z,7.50
2022-09-15T04:21:27.736Z,7.80
2022-09-15T04:23:54.504Z,7.77
2022-09-15T04:26:25.857Z,7.67
2022-09-15T04:28:52.550Z,12.43
2022-09-15T04:31:20.283Z,3.23
2022-09-15T04:33:47.629Z,2.70
2022-09-15T04:36:18.049Z,2.47
2022-09-15T04:38:45.741Z,1.30
2022-09-15T04:41:14.079Z,1.30
2022-09-15T04:43:42.968Z,1.07
2022-09-15T04:46:10.751Z,0.80
2022-09-15T04:48:37.777Z,0.70
2022-09-15T04:51:07.555Z,0.70
2022-09-15T04:53:35.597Z,0.90
2022-09-15T04:56:11.154Z,0.77
2022-09-15T04:58:43.424Z,0.90
2022-09-15T05:01:15.727Z,0.90
2022-09-15T05:03:43.204Z,0.90
2022-09-15T05:06:16.505Z,1.00
2022-09-15T05:08:46.404Z,1.13
2022-09-15T05:11:13.079Z,1.50
2022-09-15T05:13:40.604Z,2.60
2022-09-15T05:16:09.625Z,4.27
2022-09-15T05:18:36.324Z,4.90
2022-09-15T05:21:04.737Z,5.70
2022-09-15T05:23:32.076Z,6.37
2022-09-15T05:26:00.300Z,7.40
2022-09-15T05:28:27.821Z,7.10
2022-09-15T05:30:55.546Z,6.03
2022-09-15T05:33:23.558Z,6.53
2022-09-15T05:36:00.608Z,6.37
2022-09-15T05:38:30.133Z,6.80
2022-09-15T05:41:26.766Z,7.37
2022-09-15T05:43:56.841Z,8.30
2022-09-15T05:46:26.067Z,7.47
2022-09-15T05:48:56.825Z,7.80
2022-09-15T05:51:23.822Z,8.50
2022-09-15T05:53:50.906Z,8.10
2022-09-15T05:56:18.058Z,8.30
2022-09-15T05:58:46.567Z,8.40
2022-09-15T06:01:21.958Z,9.27
2022-09-15T06:03:49.223Z,7.77
2022-09-15T06:06:16.781Z,8.13
2022-09-15T06:08:55.581Z,7.40
2022-09-15T06:11:26.969Z,7.27
2022-09-15T06:13:53.656Z,7.17
2022-09-15T06:16:23.732Z,8.27
2022-09-15T06:18:52.517Z,8.77
2022-09-15T06:21:24.624Z,8.37
2022-09-15T06:23:56.182Z,8.40
2022-09-15T06:26:23.737Z,8.20
2022-09-15T06:28:55.584Z,8.80
2022-09-15T06:31:23.242Z,7.80
2022-09-15T06:33:52.158Z,7.70
2022-09-15T06:36:21.036Z,7.83
2022-09-15T06:38:48.064Z,8.57
2022-09-15T06:41:15.265Z,8.10
2022-09-15T06:43:42.309Z,8.03
2022-09-15T06:46:12.440Z,8.20
2022-09-15T06:48:40.194Z,8.30
2022-09-15T06:51:08.867Z,7.90
2022-09-15T06:53:37.989Z,8.53
2022-09-15T06:56:10.934Z,8.40
2022-09-15T06:58:40.026Z,8.73
2022-09-15T07:01:13.069Z,8.23
2022-09-15T07:03:42.900Z,8.67
2022-09-15T07:06:11.785Z,9.30
2022-09-15T07:08:39.681Z,8.60
2022-09-15T07:11:07.460Z,8.90
2022-09-15T07:13:34.282Z,9.43
2022-09-15T07:16:03.969Z,9.60
2022-09-15T07:18:31.890Z,8.30
2022-09-15T07:21:10.311Z,8.77
2022-09-15T07:23:37.384Z,8.70
2022-09-15T07:26:12.996Z,9.00
2022-09-15T07:28:41.965Z,9.07
2022-09-15T07:31:10.813Z,9.27
2022-09-15T07:33:37.638Z,8.17
2022-09-15T07:36:08.983Z,8.60
2022-09-15T07:38:40.047Z,9.10
2022-09-15T07:41:13.159Z,8.60
2022-09-15T07:43:44.272Z,8.20
2022-09-15T07:46:12.138Z,8.30
2022-09-15T07:48:38.924Z,7.57
2022-09-15T07:51:05.757Z,8.27
2022-09-15T07:53:32.912Z,11.77
2022-09-15T07:55:59.656Z,18.13
2022-09-15T07:58:26.931Z,16.70
2022-09-15T08:00:53.830Z,7.57
2022-09-15T08:03:20.619Z,7.27
2022-09-15T08:05:47.449Z,7.00
2022-09-15T08:08:14.185Z,6.70
2022-09-15T08:10:41.328Z,6.93
2022-09-15T08:13:08.825Z,7.13
2022-09-15T08:15:38.722Z,7.40
2022-09-15T08:18:06.404Z,6.03
2022-09-15T08:20:33.674Z,7.13
2022-09-15T08:23:00.641Z,7.57
2022-09-15T08:25:27.509Z,6.20
2022-09-15T08:27:56.292Z,7.03
2022-09-15T08:30:23.670Z,6.90
2022-09-15T08:32:50.836Z,17.10
2022-09-15T08:35:18.494Z,9.20
2022-09-15T08:37:46.071Z,15.30
2022-09-15T08:40:22.110Z,5.80
2022-09-15T08:42:53.179Z,8.13
2022-09-15T08:45:30.964Z,5.70
2022-09-15T08:48:01.747Z,5.57
2022-09-15T08:50:41.666Z,5.50
2022-09-15T08:53:31.255Z,5.73
2022-09-15T08:56:09.338Z,5.80
2022-09-15T08:58:37.945Z,4.87
2022-09-15T09:01:10.372Z,5.20
2022-09-15T09:04:17.959Z,4.77
2022-09-15T09:07:36.339Z,4.73
2022-09-15T09:10:15.395Z,5.03
2022-09-15T09:13:07.453Z,4.87
2022-09-15T09:16:25.274Z,4.53
2022-09-15T09:19:14.936Z,4.70
2022-09-15T09:21:53.577Z,4.30
2022-09-15T09:24:34.771Z,4.83
2022-09-15T09:27:01.565Z,4.57
2022-09-15T09:29:36.326Z,4.87
2022-09-15T09:32:03.487Z,6.43
2022-09-15T09:34:45.707Z,6.70
2022-09-15T09:37:15.484Z,7.77
2022-09-15T09:39:42.620Z,8.90
2022-09-15T09:42:18.433Z,9.30
2022-09-15T09:44:46.738Z,7.67
2022-09-15T09:47:13.648Z,7.40
2022-09-15T09:49:46.755Z,8.10
2022-09-15T09:52:14.094Z,6.43
2022-09-15T09:54:42.218Z,8.00
2022-09-15T09:57:41.489Z,9.00
2022-09-15T10:00:31.871Z,8.13
2022-09-15T10:03:08.918Z,8.53
2022-09-15T10:05:35.711Z,9.53
2022-09-15T10:08:03.485Z,8.23
2022-09-15T10:10:32.250Z,7.17
2022-09-15T10:13:02.703Z,6.07
2022-09-15T10:15:34.390Z,5.73
2022-09-15T10:18:01.803Z,5.87
2022-09-15T10:20:50.000Z,6.80
2022-09-15T10:23:16.693Z,7.20
2022-09-15T10:25:58.557Z,7.63
2022-09-15T10:28:27.781Z,6.83
2022-09-15T10:31:16.101Z,6.60
2022-09-15T10:33:50.647Z,6.87
2022-09-15T10:36:31.636Z,5.90
2022-09-15T10:39:17.827Z,6.27
2022-09-15T10:41:59.032Z,6.40
2022-09-15T10:44:37.533Z,7.67
2022-09-15T10:47:19.558Z,5.57
2022-09-15T10:50:05.869Z,5.70
2022-09-15T10:53:12.840Z,13.80
2022-09-15T10:56:07.911Z,5.67
2022-09-15T10:59:04.842Z,5.50
2022-09-15T11:01:41.716Z,5.47
2022-09-15T11:04:41.120Z,5.00
2022-09-15T11:07:19.284Z,5.03
2022-09-15T11:09:56.007Z,4.77
2022-09-15T11:12:31.622Z,5.00
2022-09-15T11:14:58.307Z,4.57
2022-09-15T11:17:28.250Z,4.60
2022-09-15T11:20:09.326Z,4.60
2022-09-15T11:22:49.267Z,4.50
2022-09-15T11:25:23.625Z,4.30
2022-09-15T11:27:57.844Z,4.13
2022-09-15T11:30:29.686Z,4.03
2022-09-15T11:33:27.110Z,4.20
2022-09-15T11:36:14.403Z,4.07
2022-09-15T11:38:50.142Z,3.13
2022-09-15T11:41:36.166Z,3.37
2022-09-15T11:44:16.011Z,3.77
2022-09-15T11:47:04.769Z,3.83
2022-09-15T11:49:56.234Z,3.23
2022-09-15T11:52:43.012Z,3.13
2022-09-15T11:55:24.996Z,3.93
2022-09-15T11:58:23.740Z,3.30
2022-09-15T12:01:10.733Z,3.00
2022-09-15T12:04:02.033Z,2.70
2022-09-15T12:07:16.861Z,2.80
2022-09-15T12:09:43.719Z,5.13
2022-09-15T12:12:16.842Z,2.20
2022-09-15T12:14:46.581Z,2.00
2022-09-15T12:17:40.260Z,1.90
2022-09-15T12:20:45.877Z,1.73
2022-09-15T12:23:39.427Z,2.83
2022-09-15T12:26:20.116Z,2.27
2022-09-15T12:28:46.779Z,2.00
2022-09-15T12:31:22.636Z,1.73
2022-09-15T12:34:26.689Z,2.07
2022-09-15T12:36:55.405Z,2.10
2022-09-15T12:39:26.142Z,1.90
2022-09-15T12:41:56.039Z,2.40
2022-09-15T12:44:42.091Z,1.77
2022-09-15T12:47:28.489Z,1.77
2022-09-15T12:50:15.989Z,2.23
2022-09-15T12:52:49.881Z,1.80
2022-09-15T12:55:21.235Z,1.80
2022-09-15T12:58:15.794Z,1.77
2022-09-15T13:01:00.691Z,2.13
2022-09-15T13:06:10.440Z,7.40
2022-09-15T13:08:37.113Z,2.00
2022-09-15T13:11:08.964Z,2.00
2022-09-15T13:13:43.902Z,1.60
2022-09-15T13:16:19.474Z,2.17
2022-09-15T13:18:47.438Z,1.87
2022-09-15T13:21:17.431Z,1.67
2022-09-15T13:23:50.195Z,2.23
2022-09-15T13:26:23.910Z,1.83
2022-09-15T13:28:55.610Z,1.73
2022-09-15T13:31:53.506Z,1.40
2022-09-15T13:40:48.245Z,2.07
2022-09-15T13:43:59.269Z,1.60
2022-09-15T13:46:58.124Z,1.70
2022-09-15T13:49:24.958Z,1.60
2022-09-15T13:52:10.101Z,1.90
2022-09-15T13:54:36.897Z,1.60
2022-09-15T13:57:04.647Z,1.77
2022-09-15T13:59:33.208Z,1.57
2022-09-15T14:02:00.858Z,1.50
2022-09-15T14:04:32.040Z,1.67
2022-09-15T14:07:01.331Z,1.70
2022-09-15T14:09:31.132Z,1.27
2022-09-15T14:12:04.657Z,1.60
2022-09-15T14:14:39.377Z,1.83
2022-09-15T14:17:17.619Z,1.30
2022-09-15T14:19:44.346Z,1.90
2022-09-15T14:22:31.367Z,1.70
2022-09-15T14:24:59.760Z,1.43
2022-09-15T14:27:29.239Z,1.67
2022-09-15T14:30:00.410Z,1.60
2022-09-15T14:32:29.095Z,1.77
2022-09-15T14:35:03.478Z,1.53
2022-09-15T14:37:34.703Z,2.13
2022-09-15T14:40:16.514Z,2.37
2022-09-15T14:42:43.624Z,1.70
2022-09-15T14:48:01.917Z,1.87
2022-09-15T14:50:33.119Z,1.67
2022-09-15T14:53:07.563Z,1.83
2022-09-15T14:55:57.514Z,2.00
2022-09-15T14:58:45.526Z,1.80
2022-09-15T15:01:33.213Z,1.60
2022-09-15T15:04:03.165Z,1.97
2022-09-15T15:06:41.563Z,1.80
2022-09-15T15:09:21.357Z,1.63
2022-09-15T15:11:52.941Z,1.67
2022-09-15T15:14:20.089Z,1.40
2022-09-15T15:16:52.781Z,1.60
2022-09-15T15:19:40.597Z,1.87
2022-09-15T15:22:15.031Z,1.67
2022-09-15T15:24:44.954Z,2.10
2022-09-15T15:27:39.544Z,1.60
2022-09-15T15:30:32.300Z,1.63
2022-09-15T15:33:01.635Z,1.63
2022-09-15T15:35:30.052Z,2.40
2022-09-15T15:38:14.178Z,1.57
2022-09-15T15:40:42.012Z,1.60
2022-09-15T15:43:14.935Z,1.70
2022-09-15T15:45:57.735Z,3.13
2022-09-15T15:48:26.526Z,1.80
2022-09-15T15:50:53.527Z,1.63
2022-09-15T15:53:20.431Z,1.70
2022-09-15T15:55:47.178Z,1.70
2022-09-15T15:58:15.825Z,1.73
2022-09-15T16:00:54.556Z,1.60
2022-09-15T16:03:22.066Z,1.50
2022-09-15T16:05:51.538Z,1.70
2022-09-15T16:08:38.041Z,1.70
2022-09-15T16:11:07.748Z,1.67
2022-09-15T16:13:34.530Z,1.60
2022-09-15T16:16:01.636Z,1.70
2022-09-15T16:18:29.420Z,1.80
2022-09-15T16:20:56.196Z,1.63
2022-09-15T16:23:23.442Z,1.80
2022-09-15T16:26:02.434Z,1.57
2022-09-15T16:28:29.887Z,1.87
2022-09-15T16:30:57.212Z,1.83
2022-09-15T16:33:25.009Z,2.53
2022-09-15T16:36:09.466Z,1.77
2022-09-15T16:38:36.798Z,1.80
2022-09-15T16:41:27.983Z,2.00
2022-09-15T16:43:55.980Z,1.90
2022-09-15T16:46:22.877Z,2.00
2022-09-15T16:48:49.684Z,1.77
2022-09-15T16:51:34.248Z,2.10
2022-09-15T16:54:00.986Z,2.37
2022-09-15T16:56:28.389Z,2.20
2022-09-15T16:59:00.178Z,2.10
2022-09-15T17:01:27.529Z,2.00
2022-09-15T17:03:54.325Z,2.00
2022-09-15T17:06:21.960Z,2.10
2022-09-15T17:08:48.893Z,2.10
2022-09-15T17:11:18.120Z,2.10
2022-09-15T17:13:45.800Z,2.90
2022-09-15T17:16:14.845Z,3.00
2022-09-15T17:18:41.686Z,2.43
2022-09-15T17:21:11.247Z,2.40
2022-09-15T17:23:43.930Z,2.43
2022-09-15T17:26:13.314Z,2.47
2022-09-15T17:28:41.055Z,2.70
2022-09-15T17:31:22.523Z,16.13
2022-09-15T17:33:50.030Z,5.07
2022-09-15T17:36:17.487Z,3.50
2022-09-15T17:38:48.833Z,3.70
2022-09-15T17:41:17.697Z,2.93
2022-09-15T17:43:44.596Z,2.47
2022-09-15T17:46:12.109Z,2.63
2022-09-15T17:48:39.243Z,2.50
2022-09-15T17:51:07.078Z,2.47
2022-09-15T17:53:34.168Z,2.47
2022-09-15T17:56:01.057Z,2.83
2022-09-15T17:58:29.895Z,3.00
2022-09-15T18:00:57.329Z,2.90
2022-09-15T18:03:28.587Z,2.97
2022-09-15T18:05:58.221Z,2.80
2022-09-15T18:08:25.941Z,2.70
2022-09-15T18:10:53.357Z,2.67
2022-09-15T18:13:23.610Z,2.63
2022-09-15T18:15:50.528Z,3.43
2022-09-15T18:18:19.803Z,2.97
2022-09-15T18:20:47.605Z,2.77
2022-09-15T18:23:17.021Z,3.10
2022-09-15T18:25:44.599Z,2.83
2022-09-15T18:28:11.467Z,2.73
2022-09-15T18:30:40.861Z,3.13
2022-09-15T18:33:20.357Z,3.10
2022-09-15T18:35:48.558Z,2.90
2022-09-15T18:38:15.367Z,3.10
2022-09-15T18:40:50.699Z,2.87
2022-09-15T18:43:17.912Z,2.93
2022-09-15T18:45:44.944Z,3.60
2022-09-15T18:48:13.116Z,3.30
2022-09-15T18:50:41.303Z,3.17
2022-09-15T18:53:08.359Z,3.50
2022-09-15T18:55:35.127Z,3.33
2022-09-15T18:58:02.505Z,3.30
2022-09-15T19:00:30.075Z,2.70
2022-09-15T19:03:01.190Z,3.23
2022-09-15T19:05:29.813Z,3.40
2022-09-15T19:07:57.022Z,3.00
2022-09-15T19:10:24.881Z,3.10
2022-09-15T19:12:51.732Z,3.40
2022-09-15T19:15:23.595Z,3.37
2022-09-15T19:17:50.924Z,3.27
2022-09-15T19:20:17.783Z,3.13
2022-09-15T19:22:44.522Z,2.70
2022-09-15T19:25:11.404Z,3.23
2022-09-15T19:27:39.674Z,2.93
2022-09-15T19:30:09.897Z,3.40
2022-09-15T19:32:38.184Z,2.80
2022-09-15T19:35:05.423Z,2.97
2022-09-15T19:37:35.296Z,3.07
2022-09-15T19:40:03.504Z,3.20
2022-09-15T19:42:30.401Z,3.57
2022-09-15T19:44:57.073Z,3.60
2022-09-15T19:47:23.956Z,3.77
2022-09-15T19:49:52.306Z,3.40
2022-09-15T19:52:18.945Z,3.80
2022-09-15T19:54:45.574Z,3.53
2022-09-15T19:57:12.222Z,2.93
2022-09-15T19:59:39.173Z,3.17
2022-09-15T20:02:06.480Z,3.40
2022-09-15T20:04:33.288Z,3.40
2022-09-15T20:06:59.909Z,3.80
2022-09-15T20:09:26.665Z,3.60
2022-09-15T20:11:53.284Z,3.50
2022-09-15T20:14:19.932Z,4.40
2022-09-15T20:16:46.788Z,4.60
2022-09-15T20:19:13.628Z,3.63
2022-09-15T20:21:56.324Z,3.67
2022-09-15T20:24:24.249Z,3.47
2022-09-15T20:26:51.536Z,3.53
2022-09-15T20:29:19.336Z,3.57
2022-09-15T20:31:46.805Z,3.80
2022-09-15T20:34:13.541Z,3.57
2022-09-15T20:36:40.602Z,3.90
2022-09-15T20:39:12.759Z,3.50
2022-09-15T20:41:40.593Z,3.37
2022-09-15T20:44:10.209Z,3.87
2022-09-15T20:46:36.910Z,3.50
2022-09-15T20:49:04.689Z,3.80
2022-09-15T20:51:33.591Z,3.33
2022-09-15T20:54:01.957Z,3.70
2022-09-15T20:56:30.063Z,3.47
2022-09-15T20:58:58.955Z,3.10
2022-09-15T21:01:28.059Z,3.57
2022-09-15T21:03:55.598Z,3.20
2022-09-15T21:06:24.953Z,3.47
2022-09-15T21:08:53.220Z,2.97
2022-09-15T21:11:21.025Z,3.00
2022-09-15T21:13:49.300Z,3.13
2022-09-15T21:16:18.499Z,2.93
2022-09-15T21:18:45.627Z,3.10
2022-09-15T21:21:23.590Z,2.93
2022-09-15T21:23:53.245Z,2.90
2022-09-15T21:26:25.592Z,3.27
2022-09-15T21:28:53.567Z,2.97
2022-09-15T21:31:22.677Z,3.77
2022-09-15T21:33:49.983Z,2.77
2022-09-15T21:36:22.035Z,2.77
2022-09-15T21:38:50.697Z,3.03
2022-09-15T21:41:20.757Z,3.20
2022-09-15T21:43:47.872Z,2.60
2022-09-15T21:46:18.146Z,2.20
2022-09-15T21:48:47.770Z,2.53
2022-09-15T21:51:17.990Z,2.50
2022-09-15T21:53:50.864Z,2.40
2022-09-15T21:56:17.679Z,2.20
2022-09-15T21:58:44.719Z,2.40
2022-09-15T22:01:18.868Z,2.33
2022-09-15T22:03:51.474Z,2.00
2022-09-15T22:06:19.656Z,2.20
2022-09-15T22:08:46.731Z,2.17
2022-09-15T22:11:13.522Z,2.23
2022-09-15T22:13:42.967Z,2.30
2022-09-15T22:16:16.340Z,2.10
2022-09-15T22:18:44.229Z,2.47
2022-09-15T22:21:22.747Z,2.33
2022-09-15T22:23:51.081Z,2.10
2022-09-15T22:26:20.378Z,2.20
2022-09-15T22:28:47.365Z,2.37
2022-09-15T22:31:16.547Z,2.33
2022-09-15T22:33:43.466Z,2.27
2022-09-15T22:36:11.648Z,2.43
2022-09-15T22:38:38.592Z,2.63
2022-09-15T22:41:11.910Z,3.50
2022-09-15T22:43:40.027Z,3.47
2022-09-15T22:46:07.350Z,3.10
2022-09-15T22:48:34.154Z,3.03
2022-09-15T22:51:01.202Z,3.07
2022-09-15T22:53:28.296Z,3.10
2022-09-15T22:56:06.710Z,2.77
2022-09-15T22:58:34.392Z,2.90
2022-09-15T23:01:13.445Z,2.80
2022-09-15T23:03:40.354Z,2.63
2022-09-15T23:06:08.441Z,2.10
2022-09-15T23:08:36.224Z,2.20
2022-09-15T23:11:08.800Z,2.70
2022-09-15T23:13:35.950Z,2.13
2022-09-15T23:16:03.021Z,2.40
2022-09-15T23:18:30.398Z,2.33
2022-09-15T23:21:01.852Z,1.90
2022-09-15T23:23:29.411Z,2.03
2022-09-15T23:25:56.370Z,2.30
2022-09-15T23:28:23.303Z,2.13
2022-09-15T23:30:54.364Z,2.00
2022-09-15T23:33:22.285Z,2.67
2022-09-15T23:35:49.257Z,3.30
2022-09-15T23:38:17.526Z,3.03
2022-09-15T23:40:44.794Z,2.97
2022-09-15T23:43:11.840Z,2.17
2022-09-15T23:45:38.809Z,2.27
2022-09-15T23:48:07.002Z,2.20
2022-09-15T23:50:34.643Z,2.70
2022-09-15T23:53:01.385Z,2.20
2022-09-15T23:55:28.103Z,2.23
2022-09-15T23:57:54.871Z,2.50
